createdAt,value
2022-11-24T00:01:31.280Z,8.77
2022-11-24T00:04:16.498Z,9.75
2022-11-24T00:07:01.635Z,7.93
2022-11-24T00:09:46.806Z,9.65
2022-11-24T00:12:32.131Z,8.98
2022-11-24T00:15:16.924Z,11.68
2022-11-24T00:18:02.011Z,7.18
2022-11-24T00:20:52.446Z,10.13
2022-11-24T00:23:37.817Z,7.75
2022-11-24T00:26:26.991Z,9.27
2022-11-24T00:29:12.052Z,9.30
2022-11-24T00:31:57.383Z,7.80
2022-11-24T00:34:42.439Z,9.50
2022-11-24T00:37:27.253Z,9.13
2022-11-24T00:40:12.364Z,9.48
2022-11-24T00:42:57.050Z,25.33
2022-11-24T00:45:42.750Z,8.07
2022-11-24T00:48:28.234Z,7.40
2022-11-24T00:51:16.854Z,17.38
2022-11-24T00:54:02.649Z,7.22
2022-11-24T00:56:47.722Z,9.10
2022-11-24T00:59:32.876Z,6.70
2022-11-24T01:02:17.834Z,4.10
2022-11-24T01:05:03.193Z,7.05
2022-11-24T01:07:48.417Z,4.80
2022-11-24T01:10:33.407Z,6.20
2022-11-24T01:13:18.277Z,12.00
2022-11-24T01:16:03.851Z,6.07
2022-11-24T01:18:49.359Z,8.75
2022-11-24T01:21:34.563Z,9.25
2022-11-24T01:24:19.608Z,7.80
2022-11-24T01:27:04.479Z,6.53
2022-11-24T01:29:49.587Z,12.97
2022-11-24T01:32:36.070Z,8.57
2022-11-24T01:35:21.229Z,7.32
2022-11-24T01:38:06.163Z,9.48
2022-11-24T01:41:19.528Z,10.38
2022-11-24T01:44:25.706Z,7.83
2022-11-24T01:47:36.785Z,7.13
2022-11-24T01:50:22.514Z,11.27
2022-11-24T01:53:08.352Z,9.13
2022-11-24T01:55:53.378Z,8.57
2022-11-24T01:58:42.414Z,5.17
2022-11-24T02:01:29.094Z,5.15
2022-11-24T02:04:19.652Z,12.43
2022-11-24T02:07:07.025Z,9.25
2022-11-24T02:09:55.565Z,12.73
2022-11-24T02:12:45.240Z,8.17
2022-11-24T02:15:30.257Z,7.50
2022-11-24T02:18:14.998Z,10.05
2022-11-24T02:21:00.958Z,7.88
2022-11-24T02:23:48.551Z,7.28
2022-11-24T02:26:48.647Z,3.13
2022-11-24T02:29:33.941Z,12.45
2022-11-24T02:32:20.187Z,5.32
2022-11-24T02:35:06.555Z,5.95
2022-11-24T02:37:51.587Z,8.18
2022-11-24T02:40:37.180Z,7.17
2022-11-24T02:43:23.410Z,4.80
2022-11-24T02:46:10.680Z,8.05
2022-11-24T02:48:55.742Z,5.97
2022-11-24T02:51:40.782Z,6.13
2022-11-24T02:54:25.655Z,7.00
2022-11-24T02:57:11.373Z,5.95
2022-11-24T02:59:56.707Z,5.88
2022-11-24T03:02:41.718Z,5.18
2022-11-24T03:05:26.467Z,7.20
2022-11-24T03:08:12.831Z,7.53
2022-11-24T03:10:57.702Z,9.82
2022-11-24T03:13:42.648Z,7.55
2022-11-24T03:16:27.803Z,5.05
2022-11-24T03:19:12.819Z,6.25
2022-11-24T03:21:57.773Z,8.83
2022-11-24T03:24:42.803Z,8.02
2022-11-24T03:27:27.976Z,5.93
2022-11-24T03:30:13.566Z,9.70
2022-11-24T03:32:58.547Z,10.27
2022-11-24T03:35:43.760Z,10.47
2022-11-24T03:38:29.047Z,9.40
2022-11-24T03:41:13.923Z,7.40
2022-11-24T03:43:59.090Z,7.72
2022-11-24T03:46:44.147Z,9.88
2022-11-24T03:49:29.137Z,7.20
2022-11-24T03:52:13.891Z,10.32
2022-11-24T03:54:59.001Z,5.70
2022-11-24T03:57:43.934Z,6.82
2022-11-24T04:00:29.073Z,10.45
2022-11-24T04:03:13.967Z,8.73
2022-11-24T04:05:58.839Z,9.32
2022-11-24T04:08:44.118Z,11.65
2022-11-24T04:11:47.974Z,10.50
2022-11-24T04:14:33.376Z,8.23
2022-11-24T04:17:18.881Z,10.13
2022-11-24T04:20:05.120Z,8.50
2022-11-24T04:22:51.686Z,7.30
2022-11-24T04:25:37.525Z,8.63
2022-11-24T04:28:22.474Z,12.65
2022-11-24T04:31:07.815Z,10.73
2022-11-24T04:33:52.722Z,7.00
2022-11-24T04:36:37.844Z,9.23
2022-11-24T04:39:25.985Z,5.65
2022-11-24T04:42:13.409Z,7.00
2022-11-24T04:44:58.253Z,9.63
2022-11-24T04:47:43.291Z,11.07
2022-11-24T04:50:28.432Z,13.15
2022-11-24T04:53:13.719Z,11.73
2022-11-24T04:55:58.493Z,8.93
2022-11-24T04:58:43.805Z,8.70
2022-11-24T05:01:28.897Z,6.43
2022-11-24T05:04:15.532Z,7.82
2022-11-24T05:07:00.305Z,10.68
2022-11-24T05:10:05.598Z,8.75
2022-11-24T05:12:56.067Z,6.87
2022-11-24T05:15:41.814Z,8.45
2022-11-24T05:18:26.964Z,11.05
2022-11-24T05:21:12.575Z,12.15
2022-11-24T05:23:57.870Z,9.43
2022-11-24T05:26:42.933Z,5.63
2022-11-24T05:29:28.041Z,9.68
2022-11-24T05:32:12.866Z,10.90
2022-11-24T05:34:58.183Z,6.70
2022-11-24T05:37:42.938Z,11.70
2022-11-24T05:40:28.285Z,13.93
2022-11-24T05:43:15.365Z,20.10
2022-11-24T05:46:01.365Z,20.42
2022-11-24T05:48:46.133Z,18.08
2022-11-24T05:51:31.350Z,12.13
2022-11-24T05:54:16.389Z,12.50
2022-11-24T05:57:01.550Z,12.77
2022-11-24T05:59:46.632Z,13.85
2022-11-24T06:02:32.096Z,13.02
2022-11-24T06:05:17.660Z,10.82
2022-11-24T06:08:02.569Z,10.63
2022-11-24T06:10:47.594Z,6.65
2022-11-24T06:13:32.843Z,7.57
2022-11-24T06:16:19.311Z,9.10
2022-11-24T06:19:03.993Z,9.73
2022-11-24T06:21:49.225Z,10.23
2022-11-24T06:24:34.494Z,7.63
2022-11-24T06:27:19.677Z,5.32
2022-11-24T06:30:05.443Z,10.70
2022-11-24T06:32:54.721Z,10.13
2022-11-24T06:35:39.825Z,9.73
2022-11-24T06:38:24.702Z,9.73
2022-11-24T06:41:13.346Z,9.70
2022-11-24T06:43:58.283Z,10.60
2022-11-24T06:46:43.574Z,6.68
2022-11-24T06:49:28.507Z,14.50
2022-11-24T06:52:13.550Z,6.95
2022-11-24T06:54:58.573Z,10.93
2022-11-24T06:57:43.713Z,10.85
2022-11-24T07:00:31.920Z,8.68
2022-11-24T07:03:16.954Z,6.50
2022-11-24T07:06:01.941Z,9.35
2022-11-24T07:08:47.631Z,6.90
2022-11-24T07:11:32.491Z,4.63
2022-11-24T07:14:17.396Z,7.63
2022-11-24T07:17:02.481Z,8.40
2022-11-24T07:19:47.336Z,8.88
2022-11-24T07:22:32.676Z,6.20
2022-11-24T07:25:17.743Z,6.72
2022-11-24T07:28:03.012Z,4.00
2022-11-24T07:30:47.947Z,4.07
2022-11-24T07:33:32.914Z,4.97
2022-11-24T07:36:17.835Z,6.20
2022-11-24T07:39:05.583Z,4.20
2022-11-24T07:41:50.479Z,2.00
2022-11-24T07:44:35.836Z,4.30
2022-11-24T07:47:20.904Z,4.93
2022-11-24T07:50:09.534Z,1.75
2022-11-24T07:52:54.758Z,3.42
2022-11-24T07:55:39.806Z,4.35
2022-11-24T07:58:28.871Z,2.37
2022-11-24T08:01:17.973Z,3.08
2022-11-24T08:04:03.061Z,6.35
2022-11-24T08:06:48.250Z,3.75
2022-11-24T08:09:33.560Z,4.05
2022-11-24T08:12:22.431Z,2.30
2022-11-24T08:15:11.170Z,1.70
2022-11-24T08:18:00.814Z,1.45
2022-11-24T08:20:45.983Z,4.63
2022-11-24T08:23:31.788Z,5.03
2022-11-24T08:26:19.105Z,2.40
2022-11-24T08:29:04.045Z,2.33
2022-11-24T08:31:49.208Z,3.15
2022-11-24T08:34:34.760Z,2.47
2022-11-24T08:37:19.741Z,2.17
2022-11-24T08:40:05.558Z,1.40
2022-11-24T08:42:50.593Z,6.47
2022-11-24T08:45:41.217Z,5.32
2022-11-24T08:48:26.647Z,5.90
2022-11-24T08:51:14.312Z,3.65
2022-11-24T08:54:01.249Z,5.93
2022-11-24T08:56:48.792Z,2.10
2022-11-24T08:59:34.058Z,6.35
2022-11-24T09:02:18.811Z,5.85
2022-11-24T09:05:05.339Z,2.20
2022-11-24T09:07:55.015Z,5.83
2022-11-24T09:10:40.025Z,4.85
2022-11-24T09:13:24.871Z,5.80
2022-11-24T09:16:13.033Z,8.85
2022-11-24T09:19:00.588Z,4.28
2022-11-24T09:21:45.361Z,6.47
2022-11-24T09:24:30.274Z,4.35
2022-11-24T09:27:15.068Z,4.00
2022-11-24T09:30:00.106Z,4.78
2022-11-24T09:32:45.138Z,5.05
2022-11-24T09:35:30.398Z,5.07
2022-11-24T09:38:15.401Z,5.78
2022-11-24T09:41:29.595Z,8.38
2022-11-24T09:44:41.938Z,12.52
2022-11-24T09:47:39.453Z,3.05
2022-11-24T09:50:36.506Z,5.27
2022-11-24T09:53:44.487Z,5.32
2022-11-24T09:56:34.402Z,5.60
2022-11-24T09:59:24.017Z,7.13
2022-11-24T10:02:13.203Z,10.32
2022-11-24T10:04:58.866Z,1.47
2022-11-24T10:07:55.085Z,5.20
2022-11-24T10:10:54.514Z,6.13
2022-11-24T10:14:03.987Z,5.80
2022-11-24T10:17:01.667Z,7.90
2022-11-24T10:20:04.798Z,7.67
2022-11-24T10:23:18.427Z,7.00
2022-11-24T10:26:12.643Z,9.43
2022-11-24T10:28:57.897Z,7.72
2022-11-24T10:31:45.859Z,9.57
2022-11-24T10:34:37.389Z,9.90
2022-11-24T10:37:42.167Z,6.75
2022-11-24T10:43:43.399Z,7.05
2022-11-24T10:46:29.981Z,6.47
2022-11-24T10:49:21.726Z,4.83
2022-11-24T10:52:13.725Z,6.13
2022-11-24T10:55:01.230Z,6.38
2022-11-24T10:57:46.469Z,9.25
2022-11-24T11:00:34.072Z,7.95
2022-11-24T11:03:21.756Z,14.03
2022-11-24T11:06:13.109Z,9.10
2022-11-24T11:09:06.859Z,10.32
2022-11-24T11:11:53.685Z,7.25
2022-11-24T11:14:38.803Z,8.98
2022-11-24T11:17:35.153Z,2.57
2022-11-24T11:20:29.269Z,6.38
2022-11-24T11:23:19.880Z,3.47
2022-11-24T11:26:23.648Z,4.40
2022-11-24T11:35:36.430Z,5.35
2022-11-24T11:38:21.276Z,8.50
2022-11-24T11:41:11.814Z,8.32
2022-11-24T11:44:36.566Z,10.65
2022-11-24T11:47:27.939Z,5.53
2022-11-24T11:50:20.510Z,6.82
2022-11-24T11:53:20.242Z,7.40
2022-11-24T11:56:20.815Z,12.20
2022-11-24T11:59:42.657Z,7.07
2022-11-24T12:03:05.390Z,6.60
2022-11-24T12:06:03.798Z,8.68
2022-11-24T12:09:20.429Z,8.45
2022-11-24T12:12:30.681Z,6.20
2022-11-24T12:15:36.442Z,5.03
2022-11-24T12:18:56.609Z,7.87
2022-11-24T12:21:47.170Z,10.23
2022-11-24T12:24:59.459Z,9.52
2022-11-24T12:28:14.559Z,6.75
2022-11-24T12:31:09.143Z,6.07
2022-11-24T12:34:09.719Z,4.43
2022-11-24T12:37:31.282Z,11.35
2022-11-24T12:40:34.452Z,10.70
2022-11-24T12:43:30.249Z,11.63
2022-11-24T12:46:40.604Z,12.07
2022-11-24T12:49:37.904Z,8.67
2022-11-24T12:52:31.283Z,10.30
2022-11-24T12:55:20.128Z,4.68
2022-11-24T12:58:17.014Z,5.78
2022-11-24T13:01:22.268Z,9.13
2022-11-24T13:04:20.885Z,7.57
2022-11-24T13:07:43.255Z,10.43
2022-11-24T13:10:54.690Z,7.18
2022-11-24T13:14:00.570Z,3.30
2022-11-24T13:17:13.432Z,8.75
2022-11-24T13:20:15.974Z,10.13
2022-11-24T13:23:03.414Z,7.57
2022-11-24T13:26:15.000Z,8.93
2022-11-24T13:29:09.269Z,6.05
2022-11-24T13:32:05.874Z,8.63
2022-11-24T13:34:54.757Z,6.10
2022-11-24T13:37:39.841Z,12.60
2022-11-24T13:40:26.285Z,6.93
2022-11-24T13:43:11.451Z,7.15
2022-11-24T13:45:56.374Z,5.53
2022-11-24T13:48:59.973Z,7.47
2022-11-24T13:51:44.921Z,5.25
2022-11-24T13:54:30.717Z,6.45
2022-11-24T13:57:37.948Z,14.68
2022-11-24T14:00:28.388Z,4.18
2022-11-24T14:03:21.753Z,13.00
2022-11-24T14:06:13.871Z,5.47
2022-11-24T14:09:18.867Z,7.35
2022-11-24T14:12:12.377Z,9.80
2022-11-24T14:15:22.274Z,12.90
2022-11-24T14:18:17.613Z,10.63
2022-11-24T14:21:25.436Z,7.28
2022-11-24T14:24:24.008Z,7.55
2022-11-24T14:27:15.218Z,8.77
2022-11-24T14:30:02.548Z,6.80
2022-11-24T14:33:03.923Z,7.30
2022-11-24T14:35:50.899Z,8.88
2022-11-24T14:38:36.065Z,6.68
2022-11-24T14:41:28.148Z,6.25
2022-11-24T14:44:26.500Z,8.77
2022-11-24T14:47:31.344Z,10.33
2022-11-24T14:50:20.569Z,5.78
2022-11-24T14:53:13.681Z,7.93
2022-11-24T14:56:25.670Z,12.18
2022-11-24T14:59:25.195Z,12.10
2022-11-24T15:02:44.486Z,6.73
2022-11-24T15:05:52.772Z,12.30
2022-11-24T15:08:45.041Z,6.18
2022-11-24T15:11:32.020Z,9.48
2022-11-24T15:14:36.172Z,9.68
2022-11-24T15:17:27.376Z,7.97
2022-11-24T15:20:28.248Z,14.63
2022-11-24T15:23:15.789Z,9.57
2022-11-24T15:26:00.848Z,9.38
2022-11-24T15:28:46.618Z,7.60
2022-11-24T15:31:32.067Z,9.30
2022-11-24T15:34:17.048Z,12.32
2022-11-24T15:37:01.897Z,9.13
2022-11-24T15:39:47.248Z,7.75
2022-11-24T15:42:32.856Z,5.10
2022-11-24T15:45:19.041Z,6.13
2022-11-24T15:48:03.888Z,14.43
2022-11-24T15:50:50.369Z,5.93
2022-11-24T15:53:46.448Z,8.30
2022-11-24T15:56:34.318Z,8.55
2022-11-24T15:59:21.201Z,10.87
2022-11-24T16:02:09.148Z,6.35
2022-11-24T16:04:54.222Z,3.95
2022-11-24T16:07:39.997Z,7.82
2022-11-24T16:10:28.248Z,4.90
2022-11-24T16:13:13.495Z,9.73
2022-11-24T16:15:58.789Z,8.63
2022-11-24T16:18:45.073Z,8.75
2022-11-24T16:21:29.941Z,8.35
2022-11-24T16:24:14.940Z,8.60
2022-11-24T16:27:00.189Z,5.87
2022-11-24T16:29:45.195Z,7.50
2022-11-24T16:32:30.394Z,8.80
2022-11-24T16:35:15.907Z,9.80
2022-11-24T16:38:00.676Z,9.82
2022-11-24T16:40:56.324Z,10.33
2022-11-24T16:43:42.097Z,10.63
2022-11-24T16:46:27.478Z,9.82
2022-11-24T16:49:12.763Z,11.63
2022-11-24T16:51:57.877Z,7.78
2022-11-24T16:54:42.879Z,9.27
2022-11-24T16:57:27.972Z,9.00
2022-11-24T17:00:13.385Z,11.95
2022-11-24T17:02:58.502Z,8.50
2022-11-24T17:05:43.685Z,9.35
2022-11-24T17:08:33.723Z,16.93
2022-11-24T17:11:21.257Z,14.70
2022-11-24T17:14:06.475Z,8.63
2022-11-24T17:16:51.590Z,10.15
2022-11-24T17:19:37.404Z,12.85
2022-11-24T17:22:22.966Z,8.10
2022-11-24T17:25:08.637Z,13.23
2022-11-24T17:27:53.859Z,18.38
2022-11-24T17:30:38.714Z,21.65
2022-11-24T17:33:23.664Z,35.95
2022-11-24T17:36:08.846Z,33.43
2022-11-24T17:38:54.295Z,32.25
2022-11-24T17:41:39.440Z,19.20
2022-11-24T17:44:24.662Z,17.05
2022-11-24T17:47:09.814Z,16.50
2022-11-24T17:49:54.936Z,11.13
2022-11-24T17:52:39.951Z,25.17
2022-11-24T17:55:24.688Z,12.80
2022-11-24T17:58:09.785Z,10.02
2022-11-24T18:00:55.220Z,8.57
2022-11-24T18:03:41.276Z,5.60
2022-11-24T18:06:28.524Z,8.63
2022-11-24T18:09:13.612Z,9.15
2022-11-24T18:11:58.768Z,13.95
2022-11-24T18:14:43.903Z,10.63
2022-11-24T18:17:29.036Z,7.13
2022-11-24T18:20:14.155Z,9.48
2022-11-24T18:23:07.777Z,8.40
2022-11-24T18:25:57.323Z,7.88
2022-11-24T18:28:44.212Z,7.00
2022-11-24T18:31:30.933Z,4.93
2022-11-24T18:34:15.761Z,10.60
2022-11-24T18:37:00.925Z,8.30
2022-11-24T18:39:46.043Z,7.65
2022-11-24T18:42:31.198Z,9.57
2022-11-24T18:45:16.347Z,12.40
2022-11-24T18:48:01.348Z,15.95
2022-11-24T18:50:54.271Z,22.00
2022-11-24T18:53:39.873Z,20.73
2022-11-24T18:56:25.769Z,25.38
2022-11-24T18:59:10.525Z,23.57
2022-11-24T19:01:56.409Z,14.75
2022-11-24T19:04:41.409Z,16.63
2022-11-24T19:07:26.700Z,15.50
2022-11-24T19:10:12.146Z,14.18
2022-11-24T19:12:57.048Z,8.93
2022-11-24T19:15:42.248Z,16.90
2022-11-24T19:18:29.103Z,14.40
2022-11-24T19:21:14.203Z,12.00
2022-11-24T19:24:04.908Z,9.68
2022-11-24T19:26:51.222Z,11.40
2022-11-24T19:29:41.716Z,12.93
2022-11-24T19:32:28.030Z,14.88
2022-11-24T19:35:13.393Z,15.73
2022-11-24T19:37:58.312Z,14.45
2022-11-24T19:40:43.458Z,13.67
2022-11-24T19:43:28.547Z,13.82
2022-11-24T19:46:18.323Z,21.58
2022-11-24T19:49:04.507Z,15.43
2022-11-24T19:51:49.931Z,14.02
2022-11-24T19:54:36.064Z,13.87
2022-11-24T19:57:21.161Z,13.43
2022-11-24T20:00:07.333Z,15.45
2022-11-24T20:02:52.321Z,17.30
2022-11-24T20:05:37.253Z,17.55
2022-11-24T20:08:22.114Z,20.27
2022-11-24T20:11:13.122Z,20.17
2022-11-24T20:13:58.484Z,20.38
2022-11-24T20:16:45.549Z,14.43
2022-11-24T20:19:32.533Z,18.65
2022-11-24T20:22:17.632Z,15.10
2022-11-24T20:25:02.708Z,15.82
2022-11-24T20:27:47.919Z,16.33
2022-11-24T20:30:33.004Z,12.27
2022-11-24T20:33:17.944Z,11.55
2022-11-24T20:36:04.967Z,20.50
2022-11-24T20:38:51.741Z,15.65
2022-11-24T20:41:39.477Z,16.17
2022-11-24T20:44:26.515Z,17.00
2022-11-24T20:47:11.343Z,17.67
2022-11-24T20:49:57.136Z,18.17
2022-11-24T20:52:42.087Z,17.10
2022-11-24T20:55:26.956Z,22.10
2022-11-24T20:58:12.058Z,18.20
2022-11-24T21:01:12.787Z,20.50
2022-11-24T21:03:59.374Z,18.63
2022-11-24T21:06:44.460Z,14.30
2022-11-24T21:09:30.550Z,10.90
2022-11-24T21:12:15.457Z,19.42
2022-11-24T21:15:00.635Z,13.50
2022-11-24T21:17:45.794Z,13.10
2022-11-24T21:20:33.748Z,11.73
2022-11-24T21:23:20.406Z,10.50
2022-11-24T21:26:11.524Z,13.65
2022-11-24T21:29:00.207Z,14.75
2022-11-24T21:31:45.666Z,13.27
2022-11-24T21:34:30.589Z,17.02
2022-11-24T21:37:15.268Z,14.60
2022-11-24T21:40:00.509Z,15.98
2022-11-24T21:42:45.496Z,12.85
2022-11-24T21:45:30.561Z,16.77
2022-11-24T21:48:15.439Z,16.00
2022-11-24T21:51:02.458Z,13.13
2022-11-24T21:53:47.626Z,11.27
2022-11-24T21:56:32.726Z,20.83
2022-11-24T21:59:19.835Z,20.40
2022-11-24T22:02:08.936Z,18.45
2022-11-24T22:04:57.755Z,22.35
2022-11-24T22:07:43.399Z,15.73
2022-11-24T22:10:28.447Z,16.23
2022-11-24T22:13:13.687Z,14.23
2022-11-24T22:16:00.839Z,15.38
2022-11-24T22:18:46.309Z,12.73
2022-11-24T22:21:33.279Z,17.45
2022-11-24T22:24:21.690Z,10.77
2022-11-24T22:27:09.467Z,13.10
2022-11-24T22:29:54.492Z,14.27
2022-11-24T22:32:39.532Z,12.93
2022-11-24T22:35:24.584Z,21.90
2022-11-24T22:38:09.665Z,23.15
2022-11-24T22:40:55.009Z,15.10
2022-11-24T22:43:41.214Z,13.95
2022-11-24T22:46:27.714Z,18.45
2022-11-24T22:49:12.628Z,10.38
2022-11-24T22:51:57.861Z,17.13
2022-11-24T22:54:42.982Z,14.33
2022-11-24T22:57:27.725Z,16.08
2022-11-24T23:00:13.782Z,11.15
2022-11-24T23:02:58.907Z,12.23
2022-11-24T23:05:43.902Z,12.73
2022-11-24T23:08:31.731Z,8.97
2022-11-24T23:11:25.839Z,9.13
2022-11-24T23:14:15.685Z,11.73
2022-11-24T23:17:00.752Z,9.85
2022-11-24T23:19:45.905Z,10.07
2022-11-24T23:22:31.114Z,9.90
2022-11-24T23:25:15.911Z,10.27
2022-11-24T23:28:00.997Z,11.90
2022-11-24T23:30:46.011Z,9.32
2022-11-24T23:33:31.460Z,9.65
2022-11-24T23:36:18.562Z,12.37
2022-11-24T23:39:06.373Z,8.27
2022-11-24T23:41:51.463Z,10.10
2022-11-24T23:44:36.804Z,10.82
2022-11-24T23:47:21.961Z,10.57
2022-11-24T23:50:08.614Z,13.70
2022-11-24T23:52:53.650Z,12.82
2022-11-24T23:55:38.762Z,10.82
2022-11-24T23:58:23.411Z,13.80
